Back to Top

Language: 

My Weather Underground Personal Weather Station Historical Data with Graphs...

Delerius Weather Station Historical Data
Daily Summary for January 16, 2018 Units:  English    Metric   Both
« Previous Day
Next Day »
Daily Weekly Monthly Yearly Custom
  High: Low: Average:
Temperature: 39.6 °F 33.4 °F 36.6 °F
Dew Point: 36.1 °F 31.9 °F 33.9 °F
Humidity: 94 % 85 % 90 %
Wind Speed: 21.0 mph 5.0 mph 12.1 mph
Wind Gust: 37.0 mph - -
Wind:- - West
Pressure: 29.26 in 29.16 in -
Precipitation: 0.24 in    
Historical Graphs
 
 
Tabular Data for January 16, 2018
Time Temperature Dew Point Pressure Wind Wind Speed Wind Gust Humidity Rainfall Rate (Hourly) solar Conditions
00:31 37.9 °F 35.5 °F 29.17 in West 8.0 mph 14.0 mph 91 % 0.02 in 0 W/m2
00:37 37.8 °F 35.6 °F 29.17 in West 9.0 mph 15.0 mph 92 % 0.02 in 0 W/m2
01:13 37.9 °F 35.8 °F 29.17 in WNW 9.0 mph 14.0 mph 92 % 0.02 in 0 W/m2
01:31 37.9 °F 36.1 °F 29.17 in West 7.0 mph 12.0 mph 93 % 0.03 in 0 W/m2
01:42 37.9 °F 36.1 °F 29.17 in West 13.0 mph 22.0 mph 93 % 0.04 in 0 W/m2
01:47 37.8 °F 35.6 °F 29.18 in West 13.0 mph 21.0 mph 92 % 0.05 in 0 W/m2
01:58 37.2 °F 35.1 °F 29.18 in West 13.0 mph 21.0 mph 92 % 0.04 in 0 W/m2
02:07 36.7 °F 34.6 °F 29.18 in West 10.0 mph 20.0 mph 92 % 0.04 in 0 W/m2
02:32 36.1 °F 34.6 °F 29.17 in West 7.0 mph 12.0 mph 94 % 0.05 in 0 W/m2
02:40 36.3 °F 34.8 °F 29.17 in West 9.0 mph 16.0 mph 94 % 0.04 in 0 W/m2
02:54 36.3 °F 34.5 °F 29.17 in West 13.0 mph 22.0 mph 93 % 0.02 in 0 W/m2
03:02 36.7 °F 34.6 °F 29.16 in West 13.0 mph 21.0 mph 92 % 0.02 in 0 W/m2
03:10 36.9 °F 34.5 °F 29.16 in West 10.0 mph 15.0 mph 91 % 0.02 in 0 W/m2
03:30 37.0 °F 34.4 °F 29.16 in West 11.0 mph 20.0 mph 90 % 0.00 in 0 W/m2
03:36 37.2 °F 34.6 °F 29.16 in West 14.0 mph 23.0 mph 90 % 0.00 in 0 W/m2
03:51 37.4 °F 34.7 °F 29.16 in West 13.0 mph 21.0 mph 90 % 0.00 in 0 W/m2
03:59 37.6 °F 34.9 °F 29.16 in West 13.0 mph 23.0 mph 90 % 0.00 in 0 W/m2
04:07 37.6 °F 34.6 °F 29.16 in West 13.0 mph 18.0 mph 89 % 0.00 in 0 W/m2
04:31 37.2 °F 34.3 °F 29.16 in West 12.0 mph 16.0 mph 89 % 0.00 in 0 W/m2
04:47 37.6 °F 34.9 °F 29.17 in WNW 12.0 mph 20.0 mph 90 % 0.00 in 0 W/m2
05:01 37.8 °F 35.1 °F 29.18 in West 13.0 mph 20.0 mph 90 % 0.01 in 0 W/m2
05:07 37.8 °F 34.8 °F 29.18 in WNW 11.0 mph 15.0 mph 89 % 0.01 in 0 W/m2
05:15 37.8 °F 34.8 °F 29.18 in West 15.0 mph 27.0 mph 89 % 0.01 in 0 W/m2
05:27 37.6 °F 34.3 °F 29.19 in West 21.0 mph 37.0 mph 88 % 0.01 in 0 W/m2
05:47 36.3 °F 33.9 °F 29.19 in West 8.0 mph 16.0 mph 91 % 0.02 in 0 W/m2
06:28 37.6 °F 34.1 °F 29.19 in West 13.0 mph 21.0 mph 87 % 0.02 in 0 W/m2
06:33 37.6 °F 33.8 °F 29.20 in West 12.0 mph 21.0 mph 86 % 0.01 in 0 W/m2
06:39 37.6 °F 33.8 °F 29.20 in West 17.0 mph 27.0 mph 86 % 0.01 in 0 W/m2
06:45 37.0 °F 33.5 °F 29.19 in WNW 14.0 mph 25.0 mph 87 % 0.01 in 0 W/m2
06:53 36.7 °F 33.5 °F 29.20 in West 12.0 mph 21.0 mph 88 % 0.01 in 0 W/m2
07:00 36.9 °F 33.6 °F 29.20 in WSW 13.0 mph 20.0 mph 88 % 0.01 in 0 W/m2
07:05 36.7 °F 33.5 °F 29.20 in West 13.0 mph 22.0 mph 88 % 0.01 in 0 W/m2
07:11 36.5 °F 33.6 °F 29.21 in West 11.0 mph 18.0 mph 89 % 0.00 in 0 W/m2
07:27 36.7 °F 33.7 °F 29.21 in West 14.0 mph 21.0 mph 89 % 0.00 in 0 W/m2
07:33 37.0 °F 34.1 °F 29.21 in West 15.0 mph 24.0 mph 89 % 0.00 in 0 W/m2
07:48 37.0 °F 34.1 °F 29.20 in West 10.0 mph 16.0 mph 89 % 0.00 in 0 W/m2
07:55 37.2 °F 34.0 °F 29.21 in West 12.0 mph 19.0 mph 88 % 0.00 in 0 W/m2
08:02 37.4 °F 33.9 °F 29.22 in West 13.0 mph 24.0 mph 87 % 0.00 in 0 W/m2
08:20 37.8 °F 33.9 °F 29.22 in West 12.0 mph 18.0 mph 86 % 0.00 in 44 W/m2
08:47 37.9 °F 34.1 °F 29.23 in West 19.0 mph 29.0 mph 86 % 0.00 in 11 W/m2
08:53 37.6 °F 33.8 °F 29.23 in West 11.0 mph 18.0 mph 86 % 0.00 in 11 W/m2
09:04 37.2 °F 34.0 °F 29.23 in West 10.0 mph 18.0 mph 88 % 0.00 in 23 W/m2
09:12 37.0 °F 34.1 °F 29.24 in West 12.0 mph 21.0 mph 89 % 0.01 in 65 W/m2
09:19 37.2 °F 34.6 °F 29.24 in West 10.0 mph 18.0 mph 90 % 0.01 in 53 W/m2
09:27 37.4 °F 34.5 °F 29.24 in WSW 9.0 mph 16.0 mph 89 % 0.01 in 83 W/m2
09:47 38.1 °F 34.9 °F 29.25 in West 10.0 mph 14.0 mph 88 % 0.01 in 37 W/m2
09:57 37.8 °F 34.8 °F 29.25 in WSW 11.0 mph 18.0 mph 89 % 0.01 in 54 W/m2
10:10 37.2 °F 34.6 °F 29.25 in West 13.0 mph 21.0 mph 90 % 0.00 in 21 W/m2
10:27 39.0 °F 35.8 °F 29.25 in West 17.0 mph 23.0 mph 88 % 0.00 in 350 W/m2
10:33 39.6 °F 36.0 °F 29.26 in West 16.0 mph 27.0 mph 87 % 0.00 in 19 W/m2
10:39 38.8 °F 35.0 °F 29.26 in West 18.0 mph 29.0 mph 86 % 0.01 in 7 W/m2
10:58 36.5 °F 33.8 °F 29.25 in West 11.0 mph 16.0 mph 90 % 0.01 in 84 W/m2
11:40 37.9 °F 35.3 °F 29.23 in West 15.0 mph 25.0 mph 90 % 0.02 in 229 W/m2
11:50 38.5 °F 35.5 °F 29.23 in West 14.0 mph 24.0 mph 89 % 0.02 in 274 W/m2
12:11 39.4 °F 35.5 °F 29.24 in West 14.0 mph 21.0 mph 86 % 0.02 in 84 W/m2
12:23 38.3 °F 34.8 °F 29.25 in West 14.0 mph 23.0 mph 87 % 0.02 in 9 W/m2
12:41 36.3 °F 33.7 °F 29.24 in West 9.0 mph 18.0 mph 90 % 0.02 in 51 W/m2
12:46 36.3 °F 33.9 °F 29.24 in West 11.0 mph 16.0 mph 91 % 0.02 in 35 W/m2
13:04 36.7 °F 34.3 °F 29.24 in WSW 11.0 mph 18.0 mph 91 % 0.02 in 18 W/m2
13:10 36.9 °F 34.8 °F 29.23 in West 9.0 mph 14.0 mph 92 % 0.02 in 236 W/m2
13:16 37.2 °F 35.1 °F 29.23 in West 8.0 mph 12.0 mph 92 % 0.02 in 81 W/m2
13:49 37.6 °F 34.3 °F 29.23 in WSW 13.0 mph 23.0 mph 88 % 0.01 in 18 W/m2
14:00 36.5 °F 33.8 °F 29.24 in West 15.0 mph 26.0 mph 90 % 0.01 in 25 W/m2
14:10 36.1 °F 33.8 °F 29.23 in West 10.0 mph 14.0 mph 91 % 0.02 in 21 W/m2
14:16 36.3 °F 34.2 °F 29.24 in WNW 10.0 mph 15.0 mph 92 % 0.02 in 5 W/m2
14:29 36.0 °F 33.9 °F 29.24 in West 8.0 mph 12.0 mph 92 % 0.02 in 21 W/m2
14:43 35.6 °F 33.5 °F 29.22 in WSW 10.0 mph 16.0 mph 92 % 0.02 in 76 W/m2
14:53 35.8 °F 33.7 °F 29.21 in WSW 8.0 mph 12.0 mph 92 % 0.02 in 16 W/m2
15:18 36.1 °F 34.3 °F 29.21 in West 8.0 mph 11.0 mph 93 % 0.01 in 46 W/m2
15:26 36.5 °F 34.7 °F 29.21 in West 9.0 mph 14.0 mph 93 % 0.01 in 23 W/m2
15:35 36.7 °F 34.6 °F 29.20 in WSW 11.0 mph 16.0 mph 92 % 0.01 in 16 W/m2
15:41 36.9 °F 34.5 °F 29.20 in WSW 13.0 mph 19.0 mph 91 % 0.01 in 7 W/m2
15:54 37.0 °F 34.4 °F 29.19 in WSW 10.0 mph 15.0 mph 90 % 0.00 in 11 W/m2
16:03 37.2 °F 34.0 °F 29.19 in WSW 14.0 mph 24.0 mph 88 % 0.01 in 12 W/m2
16:17 37.6 °F 34.1 °F 29.19 in West 12.0 mph 22.0 mph 87 % 0.01 in 5 W/m2
16:32 37.6 °F 33.8 °F 29.18 in WSW 14.0 mph 22.0 mph 86 % 0.01 in 0 W/m2
16:42 37.6 °F 33.5 °F 29.17 in WSW 19.0 mph 27.0 mph 85 % 0.01 in 0 W/m2
17:07 37.4 °F 33.3 °F 29.18 in WSW 16.0 mph 29.0 mph 85 % 0.00 in 0 W/m2
17:13 37.6 °F 33.5 °F 29.18 in WSW 16.0 mph 24.0 mph 85 % 0.00 in 0 W/m2
17:20 37.2 °F 33.1 °F 29.17 in WSW 15.0 mph 24.0 mph 85 % 0.00 in 0 W/m2
17:36 37.2 °F 33.1 °F 29.18 in WSW 15.0 mph 26.0 mph 85 % 0.00 in 0 W/m2
17:41 37.0 °F 33.2 °F 29.18 in WSW 15.0 mph 25.0 mph 86 % 0.00 in 0 W/m2
17:59 36.5 °F 33.3 °F 29.18 in WSW 17.0 mph 26.0 mph 88 % 0.00 in 0 W/m2
18:08 36.1 °F 32.9 °F 29.19 in West 21.0 mph 34.0 mph 88 % 0.01 in 0 W/m2
18:21 35.2 °F 32.9 °F 29.18 in WSW 16.0 mph 26.0 mph 91 % 0.01 in 0 W/m2
18:33 35.2 °F 32.9 °F 29.17 in West 17.0 mph 24.0 mph 91 % 0.01 in 0 W/m2
18:43 35.8 °F 33.1 °F 29.19 in West 16.0 mph 25.0 mph 90 % 0.01 in 0 W/m2
18:51 35.2 °F 32.6 °F 29.18 in WSW 16.0 mph 24.0 mph 90 % 0.01 in 0 W/m2
19:06 34.9 °F 32.8 °F 29.19 in West 16.0 mph 24.0 mph 92 % 0.00 in 0 W/m2
19:12 34.9 °F 32.8 °F 29.19 in West 12.0 mph 21.0 mph 92 % 0.01 in 0 W/m2
19:25 34.7 °F 32.6 °F 29.20 in West 9.0 mph 14.0 mph 92 % 0.01 in 0 W/m2
19:34 34.2 °F 32.3 °F 29.20 in WSW 11.0 mph 18.0 mph 93 % 0.01 in 0 W/m2
19:39 34.0 °F 32.2 °F 29.20 in West 8.0 mph 13.0 mph 93 % 0.01 in 0 W/m2
19:46 34.0 °F 32.4 °F 29.20 in West 8.0 mph 12.0 mph 94 % 0.01 in 0 W/m2
19:51 34.0 °F 32.4 °F 29.20 in West 10.0 mph 15.0 mph 94 % 0.02 in 0 W/m2
20:03 34.3 °F 32.8 °F 29.19 in WSW 10.0 mph 14.0 mph 94 % 0.02 in 0 W/m2
20:13 34.3 °F 32.8 °F 29.20 in West 10.0 mph 16.0 mph 94 % 0.02 in 0 W/m2
20:31 33.6 °F 32.1 °F 29.19 in West 5.0 mph 7.0 mph 94 % 0.02 in 0 W/m2
20:53 33.4 °F 31.9 °F 29.19 in West 7.0 mph 11.0 mph 94 % 0.01 in 0 W/m2
21:05 33.6 °F 32.1 °F 29.19 in West 9.0 mph 14.0 mph 94 % 0.01 in 0 W/m2
21:27 34.9 °F 32.8 °F 29.19 in West 10.0 mph 20.0 mph 92 % 0.00 in 0 W/m2
21:45 35.2 °F 32.6 °F 29.20 in WSW 15.0 mph 24.0 mph 90 % 0.00 in 0 W/m2
21:54 35.2 °F 32.6 °F 29.20 in WSW 15.0 mph 23.0 mph 90 % 0.01 in 0 W/m2
22:00 35.1 °F 32.4 °F 29.20 in West 12.0 mph 21.0 mph 90 % 0.01 in 0 W/m2
22:06 34.7 °F 32.3 °F 29.21 in WSW 10.0 mph 16.0 mph 91 % 0.01 in 0 W/m2
22:24 34.2 °F 32.1 °F 29.21 in West 9.0 mph 14.0 mph 92 % 0.01 in 0 W/m2
22:31 34.0 °F 32.2 °F 29.21 in WSW 10.0 mph 14.0 mph 93 % 0.01 in 0 W/m2
22:57 33.6 °F 32.1 °F 29.23 in WNW 10.0 mph 18.0 mph 94 % 0.00 in 0 W/m2
23:17 33.4 °F 31.9 °F 29.22 in West 9.0 mph 14.0 mph 94 % 0.00 in 0 W/m2
23:37 34.0 °F 32.2 °F 29.22 in West 12.0 mph 23.0 mph 93 % 0.00 in 0 W/m2
Delerius-Weather
Compliments of Weather Underground - 1.5 mb

Data updates at regular intervals.